sensor_id;sensor_type;location;lat;lon;timestamp;P1;durP1;ratioP1;P2;durP2;ratioP2
77038;SDS011;65970;50.476;4.840;2023-08-30T00:01:49;5.57;;;3.72;;
77038;SDS011;65970;50.476;4.840;2023-08-30T00:06:50;4.60;;;3.28;;
77038;SDS011;65970;50.476;4.840;2023-08-30T00:11:51;3.97;;;2.97;;
77038;SDS011;65970;50.476;4.840;2023-08-30T00:16:51;4.90;;;3.08;;
77038;SDS011;65970;50.476;4.840;2023-08-30T00:21:52;7.47;;;3.15;;
77038;SDS011;65970;50.476;4.840;2023-08-30T00:26:52;4.07;;;3.38;;
77038;SDS011;65970;50.476;4.840;2023-08-30T00:31:53;6.10;;;3.80;;
77038;SDS011;65970;50.476;4.840;2023-08-30T00:36:53;5.13;;;3.58;;
77038;SDS011;65970;50.476;4.840;2023-08-30T00:41:54;5.50;;;4.10;;
77038;SDS011;65970;50.476;4.840;2023-08-30T00:46:54;4.28;;;3.53;;
77038;SDS011;65970;50.476;4.840;2023-08-30T00:51:55;7.70;;;4.13;;
77038;SDS011;65970;50.476;4.840;2023-08-30T00:56:58;5.22;;;3.95;;
77038;SDS011;65970;50.476;4.840;2023-08-30T01:02:01;4.40;;;3.78;;
77038;SDS011;65970;50.476;4.840;2023-08-30T01:07:03;5.10;;;4.13;;
77038;SDS011;65970;50.476;4.840;2023-08-30T01:12:06;4.22;;;3.58;;
77038;SDS011;65970;50.476;4.840;2023-08-30T01:17:10;4.75;;;4.18;;
77038;SDS011;65970;50.476;4.840;2023-08-30T01:22:21;7.20;;;3.78;;
77038;SDS011;65970;50.476;4.840;2023-08-30T01:27:40;4.80;;;3.53;;
77038;SDS011;65970;50.476;4.840;2023-08-30T01:32:42;6.57;;;3.97;;
77038;SDS011;65970;50.476;4.840;2023-08-30T01:37:44;6.03;;;4.82;;
77038;SDS011;65970;50.476;4.840;2023-08-30T01:42:46;6.70;;;4.23;;
77038;SDS011;65970;50.476;4.840;2023-08-30T01:47:48;5.07;;;4.18;;
77038;SDS011;65970;50.476;4.840;2023-08-30T01:52:49;5.63;;;4.40;;
77038;SDS011;65970;50.476;4.840;2023-08-30T01:57:51;4.80;;;4.03;;
77038;SDS011;65970;50.476;4.840;2023-08-30T02:02:52;4.95;;;4.35;;
77038;SDS011;65970;50.476;4.840;2023-08-30T02:13:25;4.10;;;3.72;;
77038;SDS011;65970;50.476;4.840;2023-08-30T02:18:28;7.60;;;4.38;;
77038;SDS011;65970;50.476;4.840;2023-08-30T02:23:28;5.32;;;3.92;;
77038;SDS011;65970;50.476;4.840;2023-08-30T02:28:29;6.05;;;4.30;;
77038;SDS011;65970;50.476;4.840;2023-08-30T02:33:29;5.80;;;3.95;;
77038;SDS011;65970;50.476;4.840;2023-08-30T02:38:30;4.65;;;4.07;;
77038;SDS011;65970;50.476;4.840;2023-08-30T02:43:30;7.72;;;5.88;;
77038;SDS011;65970;50.476;4.840;2023-08-30T02:48:31;7.10;;;4.60;;
77038;SDS011;65970;50.476;4.840;2023-08-30T02:53:32;5.05;;;4.13;;
77038;SDS011;65970;50.476;4.840;2023-08-30T02:58:32;4.35;;;3.92;;
77038;SDS011;65970;50.476;4.840;2023-08-30T03:03:33;4.72;;;3.55;;
77038;SDS011;65970;50.476;4.840;2023-08-30T03:08:34;5.10;;;4.05;;
77038;SDS011;65970;50.476;4.840;2023-08-30T03:13:34;7.47;;;3.90;;
77038;SDS011;65970;50.476;4.840;2023-08-30T03:18:35;7.35;;;4.35;;
77038;SDS011;65970;50.476;4.840;2023-08-30T03:23:35;4.25;;;3.85;;
77038;SDS011;65970;50.476;4.840;2023-08-30T03:28:37;7.75;;;4.03;;
77038;SDS011;65970;50.476;4.840;2023-08-30T03:33:38;6.75;;;4.18;;
77038;SDS011;65970;50.476;4.840;2023-08-30T03:38:39;6.07;;;3.60;;
77038;SDS011;65970;50.476;4.840;2023-08-30T03:43:40;5.68;;;3.55;;
77038;SDS011;65970;50.476;4.840;2023-08-30T03:48:40;4.85;;;3.33;;
77038;SDS011;65970;50.476;4.840;2023-08-30T03:53:41;4.05;;;3.30;;
77038;SDS011;65970;50.476;4.840;2023-08-30T03:58:41;5.70;;;3.83;;
77038;SDS011;65970;50.476;4.840;2023-08-30T04:03:42;3.55;;;3.03;;
77038;SDS011;65970;50.476;4.840;2023-08-30T04:08:42;5.35;;;3.63;;
77038;SDS011;65970;50.476;4.840;2023-08-30T04:13:43;2.83;;;2.58;;
77038;SDS011;65970;50.476;4.840;2023-08-30T04:18:43;4.65;;;2.80;;
77038;SDS011;65970;50.476;4.840;2023-08-30T04:23:44;4.05;;;2.63;;
77038;SDS011;65970;50.476;4.840;2023-08-30T04:28:44;5.00;;;2.83;;
77038;SDS011;65970;50.476;4.840;2023-08-30T04:33:45;2.97;;;2.70;;
77038;SDS011;65970;50.476;4.840;2023-08-30T04:38:45;4.07;;;2.55;;
77038;SDS011;65970;50.476;4.840;2023-08-30T04:43:46;7.32;;;3.00;;
77038;SDS011;65970;50.476;4.840;2023-08-30T04:48:47;5.63;;;2.38;;
77038;SDS011;65970;50.476;4.840;2023-08-30T04:53:47;3.90;;;2.42;;
77038;SDS011;65970;50.476;4.840;2023-08-30T04:58:48;3.05;;;2.20;;
77038;SDS011;65970;50.476;4.840;2023-08-30T05:03:48;4.20;;;2.75;;
77038;SDS011;65970;50.476;4.840;2023-08-30T05:08:49;2.45;;;1.70;;
77038;SDS011;65970;50.476;4.840;2023-08-30T05:13:50;2.67;;;1.90;;
77038;SDS011;65970;50.476;4.840;2023-08-30T05:18:51;3.22;;;2.00;;
77038;SDS011;65970;50.476;4.840;2023-08-30T05:23:51;4.07;;;2.35;;
77038;SDS011;65970;50.476;4.840;2023-08-30T05:28:52;2.97;;;1.88;;
77038;SDS011;65970;50.476;4.840;2023-08-30T05:33:52;1.80;;;1.48;;
77038;SDS011;65970;50.476;4.840;2023-08-30T05:38:53;2.75;;;2.20;;
77038;SDS011;65970;50.476;4.840;2023-08-30T05:43:53;3.35;;;2.35;;
77038;SDS011;65970;50.476;4.840;2023-08-30T05:48:54;3.58;;;2.30;;
77038;SDS011;65970;50.476;4.840;2023-08-30T05:53:55;4.82;;;2.70;;
77038;SDS011;65970;50.476;4.840;2023-08-30T05:58:55;3.13;;;2.28;;
77038;SDS011;65970;50.476;4.840;2023-08-30T06:03:56;4.63;;;2.20;;
77038;SDS011;65970;50.476;4.840;2023-08-30T06:08:57;2.50;;;1.77;;
77038;SDS011;65970;50.476;4.840;2023-08-30T06:13:58;3.40;;;2.00;;
77038;SDS011;65970;50.476;4.840;2023-08-30T06:18:58;2.28;;;1.90;;
77038;SDS011;65970;50.476;4.840;2023-08-30T06:23:59;3.72;;;2.67;;
77038;SDS011;65970;50.476;4.840;2023-08-30T06:28:59;3.40;;;1.73;;
77038;SDS011;65970;50.476;4.840;2023-08-30T06:34:00;2.40;;;2.05;;
77038;SDS011;65970;50.476;4.840;2023-08-30T06:39:00;2.20;;;1.95;;
77038;SDS011;65970;50.476;4.840;2023-08-30T06:44:01;2.28;;;1.52;;
77038;SDS011;65970;50.476;4.840;2023-08-30T06:49:02;2.03;;;1.50;;
77038;SDS011;65970;50.476;4.840;2023-08-30T06:54:02;6.07;;;2.28;;
77038;SDS011;65970;50.476;4.840;2023-08-30T06:59:03;3.55;;;1.42;;
77038;SDS011;65970;50.476;4.840;2023-08-30T07:04:03;3.85;;;1.85;;
77038;SDS011;65970;50.476;4.840;2023-08-30T07:09:04;3.58;;;1.95;;
77038;SDS011;65970;50.476;4.840;2023-08-30T07:14:05;2.20;;;1.92;;
77038;SDS011;65970;50.476;4.840;2023-08-30T07:19:05;2.67;;;2.25;;
77038;SDS011;65970;50.476;4.840;2023-08-30T07:24:06;2.35;;;1.60;;
77038;SDS011;65970;50.476;4.840;2023-08-30T07:29:08;3.00;;;2.10;;
77038;SDS011;65970;50.476;4.840;2023-08-30T07:34:09;2.00;;;1.77;;
77038;SDS011;65970;50.476;4.840;2023-08-30T07:39:12;3.75;;;2.08;;
77038;SDS011;65970;50.476;4.840;2023-08-30T07:44:13;5.03;;;2.00;;
77038;SDS011;65970;50.476;4.840;2023-08-30T07:49:13;2.88;;;1.75;;
77038;SDS011;65970;50.476;4.840;2023-08-30T07:54:14;2.33;;;1.55;;
77038;SDS011;65970;50.476;4.840;2023-08-30T07:59:14;2.08;;;1.60;;
77038;SDS011;65970;50.476;4.840;2023-08-30T08:04:15;1.63;;;1.52;;
77038;SDS011;65970;50.476;4.840;2023-08-30T08:09:15;2.55;;;1.50;;
77038;SDS011;65970;50.476;4.840;2023-08-30T08:14:16;4.57;;;1.80;;
77038;SDS011;65970;50.476;4.840;2023-08-30T08:19:17;2.22;;;1.67;;
77038;SDS011;65970;50.476;4.840;2023-08-30T08:24:17;2.80;;;1.70;;
77038;SDS011;65970;50.476;4.840;2023-08-30T08:29:18;2.30;;;1.42;;
77038;SDS011;65970;50.476;4.840;2023-08-30T08:34:18;2.13;;;1.65;;
77038;SDS011;65970;50.476;4.840;2023-08-30T08:39:19;2.25;;;1.67;;
77038;SDS011;65970;50.476;4.840;2023-08-30T08:44:20;1.98;;;1.40;;
77038;SDS011;65970;50.476;4.840;2023-08-30T08:49:22;1.73;;;1.55;;
77038;SDS011;65970;50.476;4.840;2023-08-30T08:54:23;1.80;;;1.27;;
77038;SDS011;65970;50.476;4.840;2023-08-30T08:59:25;1.88;;;1.20;;
77038;SDS011;65970;50.476;4.840;2023-08-30T09:04:26;1.27;;;1.08;;
77038;SDS011;65970;50.476;4.840;2023-08-30T09:09:29;1.17;;;0.95;;
77038;SDS011;65970;50.476;4.840;2023-08-30T09:14:29;0.98;;;0.80;;
77038;SDS011;65970;50.476;4.840;2023-08-30T09:19:30;0.85;;;0.70;;
77038;SDS011;65970;50.476;4.840;2023-08-30T09:24:39;1.15;;;0.95;;
77038;SDS011;65970;50.476;4.840;2023-08-30T09:29:41;0.85;;;0.82;;
77038;SDS011;65970;50.476;4.840;2023-08-30T09:34:47;0.93;;;0.93;;
77038;SDS011;65970;50.476;4.840;2023-08-30T09:39:49;0.80;;;0.80;;
77038;SDS011;65970;50.476;4.840;2023-08-30T09:44:50;0.73;;;0.57;;
77038;SDS011;65970;50.476;4.840;2023-08-30T09:49:52;0.73;;;0.68;;
77038;SDS011;65970;50.476;4.840;2023-08-30T09:54:54;0.77;;;0.75;;
77038;SDS011;65970;50.476;4.840;2023-08-30T09:59:56;0.30;;;0.30;;
77038;SDS011;65970;50.476;4.840;2023-08-30T10:04:58;0.47;;;0.30;;
77038;SDS011;65970;50.476;4.840;2023-08-30T10:09:58;0.98;;;0.50;;
77038;SDS011;65970;50.476;4.840;2023-08-30T10:15:00;0.93;;;0.50;;
77038;SDS011;65970;50.476;4.840;2023-08-30T10:20:03;0.55;;;0.32;;
77038;SDS011;65970;50.476;4.840;2023-08-30T10:25:15;0.20;;;0.20;;
77038;SDS011;65970;50.476;4.840;2023-08-30T10:30:20;0.68;;;0.50;;
77038;SDS011;65970;50.476;4.840;2023-08-30T10:35:21;0.30;;;0.30;;
77038;SDS011;65970;50.476;4.840;2023-08-30T10:40:22;1.13;;;0.73;;
77038;SDS011;65970;50.476;4.840;2023-08-30T10:45:23;0.65;;;0.30;;
77038;SDS011;65970;50.476;4.840;2023-08-30T10:50:30;0.30;;;0.30;;
77038;SDS011;65970;50.476;4.840;2023-08-30T10:55:31;1.20;;;0.43;;
77038;SDS011;65970;50.476;4.840;2023-08-30T11:00:32;0.68;;;0.55;;
77038;SDS011;65970;50.476;4.840;2023-08-30T11:05:32;1.38;;;0.50;;
77038;SDS011;65970;50.476;4.840;2023-08-30T11:10:33;1.20;;;0.80;;
77038;SDS011;65970;50.476;4.840;2023-08-30T11:15:33;1.52;;;1.05;;
77038;SDS011;65970;50.476;4.840;2023-08-30T11:20:34;2.10;;;0.70;;
77038;SDS011;65970;50.476;4.840;2023-08-30T11:25:34;2.38;;;1.00;;
77038;SDS011;65970;50.476;4.840;2023-08-30T11:30:39;0.98;;;0.98;;
77038;SDS011;65970;50.476;4.840;2023-08-30T11:35:40;1.67;;;1.20;;
77038;SDS011;65970;50.476;4.840;2023-08-30T11:40:40;1.55;;;1.27;;
77038;SDS011;65970;50.476;4.840;2023-08-30T11:45:41;2.05;;;1.42;;
77038;SDS011;65970;50.476;4.840;2023-08-30T11:50:42;2.38;;;1.58;;
77038;SDS011;65970;50.476;4.840;2023-08-30T11:55:44;2.28;;;1.45;;
77038;SDS011;65970;50.476;4.840;2023-08-30T12:00:46;2.10;;;1.90;;
77038;SDS011;65970;50.476;4.840;2023-08-30T12:05:50;2.92;;;2.00;;
77038;SDS011;65970;50.476;4.840;2023-08-30T12:10:51;3.47;;;2.55;;
77038;SDS011;65970;50.476;4.840;2023-08-30T12:15:52;3.53;;;2.67;;
77038;SDS011;65970;50.476;4.840;2023-08-30T12:20:57;4.40;;;2.33;;
77038;SDS011;65970;50.476;4.840;2023-08-30T12:26:01;3.65;;;2.75;;
77038;SDS011;65970;50.476;4.840;2023-08-30T12:31:04;4.57;;;2.40;;
77038;SDS011;65970;50.476;4.840;2023-08-30T12:36:04;3.63;;;2.95;;
77038;SDS011;65970;50.476;4.840;2023-08-30T12:41:05;5.90;;;3.63;;
77038;SDS011;65970;50.476;4.840;2023-08-30T12:46:06;5.95;;;3.65;;
77038;SDS011;65970;50.476;4.840;2023-08-30T12:51:06;3.90;;;3.50;;
77038;SDS011;65970;50.476;4.840;2023-08-30T12:56:07;3.38;;;3.08;;
77038;SDS011;65970;50.476;4.840;2023-08-30T13:01:07;3.83;;;3.20;;
77038;SDS011;65970;50.476;4.840;2023-08-30T13:06:08;4.13;;;3.33;;
77038;SDS011;65970;50.476;4.840;2023-08-30T13:11:08;3.88;;;3.05;;
77038;SDS011;65970;50.476;4.840;2023-08-30T13:16:09;4.38;;;2.88;;
77038;SDS011;65970;50.476;4.840;2023-08-30T13:21:09;4.90;;;2.80;;
77038;SDS011;65970;50.476;4.840;2023-08-30T13:26:10;6.22;;;2.63;;
77038;SDS011;65970;50.476;4.840;2023-08-30T13:31:10;4.57;;;1.73;;
77038;SDS011;65970;50.476;4.840;2023-08-30T13:36:11;4.18;;;2.15;;
77038;SDS011;65970;50.476;4.840;2023-08-30T13:41:11;5.72;;;2.25;;
77038;SDS011;65970;50.476;4.840;2023-08-30T13:46:12;2.72;;;2.50;;
77038;SDS011;65970;50.476;4.840;2023-08-30T13:51:13;3.88;;;1.60;;
77038;SDS011;65970;50.476;4.840;2023-08-30T13:56:14;2.95;;;1.63;;
77038;SDS011;65970;50.476;4.840;2023-08-30T14:01:14;4.63;;;2.00;;
77038;SDS011;65970;50.476;4.840;2023-08-30T14:06:15;4.45;;;1.83;;
77038;SDS011;65970;50.476;4.840;2023-08-30T14:11:16;6.35;;;1.80;;
77038;SDS011;65970;50.476;4.840;2023-08-30T14:16:16;7.60;;;1.77;;
77038;SDS011;65970;50.476;4.840;2023-08-30T14:21:17;1.50;;;1.23;;
77038;SDS011;65970;50.476;4.840;2023-08-30T14:26:17;4.57;;;1.52;;
77038;SDS011;65970;50.476;4.840;2023-08-30T14:31:18;5.15;;;1.45;;
77038;SDS011;65970;50.476;4.840;2023-08-30T14:36:18;4.03;;;1.35;;
77038;SDS011;65970;50.476;4.840;2023-08-30T14:41:19;4.82;;;1.30;;
77038;SDS011;65970;50.476;4.840;2023-08-30T14:46:19;3.30;;;1.45;;
77038;SDS011;65970;50.476;4.840;2023-08-30T14:51:20;4.63;;;2.25;;
77038;SDS011;65970;50.476;4.840;2023-08-30T14:56:20;4.07;;;2.05;;
77038;SDS011;65970;50.476;4.840;2023-08-30T15:01:21;2.88;;;2.15;;
77038;SDS011;65970;50.476;4.840;2023-08-30T15:06:21;3.50;;;1.63;;
77038;SDS011;65970;50.476;4.840;2023-08-30T15:11:22;1.88;;;1.00;;
77038;SDS011;65970;50.476;4.840;2023-08-30T15:16:23;4.07;;;1.38;;
77038;SDS011;65970;50.476;4.840;2023-08-30T15:21:23;4.82;;;0.93;;
77038;SDS011;65970;50.476;4.840;2023-08-30T15:26:24;2.78;;;1.20;;
77038;SDS011;65970;50.476;4.840;2023-08-30T15:31:24;2.97;;;1.00;;
77038;SDS011;65970;50.476;4.840;2023-08-30T15:36:25;4.90;;;1.38;;
77038;SDS011;65970;50.476;4.840;2023-08-30T15:41:26;2.17;;;1.20;;
77038;SDS011;65970;50.476;4.840;2023-08-30T15:46:26;1.73;;;0.98;;
77038;SDS011;65970;50.476;4.840;2023-08-30T15:51:27;3.60;;;1.52;;
77038;SDS011;65970;50.476;4.840;2023-08-30T15:56:27;4.13;;;1.45;;
77038;SDS011;65970;50.476;4.840;2023-08-30T16:01:28;1.95;;;1.33;;
77038;SDS011;65970;50.476;4.840;2023-08-30T16:06:28;2.47;;;1.20;;
77038;SDS011;65970;50.476;4.840;2023-08-30T16:11:29;2.17;;;1.00;;
77038;SDS011;65970;50.476;4.840;2023-08-30T16:16:29;2.08;;;1.20;;
77038;SDS011;65970;50.476;4.840;2023-08-30T16:21:30;3.55;;;1.45;;
77038;SDS011;65970;50.476;4.840;2023-08-30T16:26:30;3.17;;;1.50;;
77038;SDS011;65970;50.476;4.840;2023-08-30T16:31:31;4.00;;;2.05;;
77038;SDS011;65970;50.476;4.840;2023-08-30T16:36:32;3.95;;;1.30;;
77038;SDS011;65970;50.476;4.840;2023-08-30T16:41:32;3.35;;;1.05;;
77038;SDS011;65970;50.476;4.840;2023-08-30T16:46:33;4.25;;;1.40;;
77038;SDS011;65970;50.476;4.840;2023-08-30T16:51:33;2.13;;;0.95;;
77038;SDS011;65970;50.476;4.840;2023-08-30T16:56:34;2.35;;;0.93;;
77038;SDS011;65970;50.476;4.840;2023-08-30T17:01:34;3.58;;;0.80;;
77038;SDS011;65970;50.476;4.840;2023-08-30T17:06:35;2.08;;;0.98;;
77038;SDS011;65970;50.476;4.840;2023-08-30T17:11:35;1.40;;;1.30;;
77038;SDS011;65970;50.476;4.840;2023-08-30T17:16:36;0.90;;;0.50;;
77038;SDS011;65970;50.476;4.840;2023-08-30T17:21:37;1.92;;;0.65;;
77038;SDS011;65970;50.476;4.840;2023-08-30T17:26:37;1.88;;;0.98;;
77038;SDS011;65970;50.476;4.840;2023-08-30T17:31:38;1.80;;;1.00;;
77038;SDS011;65970;50.476;4.840;2023-08-30T17:36:38;1.33;;;0.60;;
77038;SDS011;65970;50.476;4.840;2023-08-30T17:41:39;2.08;;;1.30;;
77038;SDS011;65970;50.476;4.840;2023-08-30T17:46:40;3.53;;;1.52;;
77038;SDS011;65970;50.476;4.840;2023-08-30T17:51:41;2.13;;;1.00;;
77038;SDS011;65970;50.476;4.840;2023-08-30T17:56:41;3.75;;;0.93;;
77038;SDS011;65970;50.476;4.840;2023-08-30T18:01:42;1.63;;;1.00;;
77038;SDS011;65970;50.476;4.840;2023-08-30T18:06:45;2.92;;;1.13;;
77038;SDS011;65970;50.476;4.840;2023-08-30T18:11:45;3.50;;;1.00;;
77038;SDS011;65970;50.476;4.840;2023-08-30T18:16:46;3.05;;;1.15;;
77038;SDS011;65970;50.476;4.840;2023-08-30T18:21:46;3.28;;;1.40;;
77038;SDS011;65970;50.476;4.840;2023-08-30T18:26:47;3.35;;;1.40;;
77038;SDS011;65970;50.476;4.840;2023-08-30T18:31:49;3.13;;;1.45;;
77038;SDS011;65970;50.476;4.840;2023-08-30T18:36:49;3.55;;;2.90;;
77038;SDS011;65970;50.476;4.840;2023-08-30T18:41:50;6.85;;;4.13;;
77038;SDS011;65970;50.476;4.840;2023-08-30T18:46:50;14.57;;;7.85;;
77038;SDS011;65970;50.476;4.840;2023-08-30T18:51:51;6.30;;;4.20;;
77038;SDS011;65970;50.476;4.840;2023-08-30T18:56:52;3.85;;;1.92;;
77038;SDS011;65970;50.476;4.840;2023-08-30T19:01:52;1.63;;;1.23;;
77038;SDS011;65970;50.476;4.840;2023-08-30T19:06:53;5.03;;;1.08;;
77038;SDS011;65970;50.476;4.840;2023-08-30T19:11:53;1.30;;;1.20;;
77038;SDS011;65970;50.476;4.840;2023-08-30T19:16:54;2.78;;;1.48;;
77038;SDS011;65970;50.476;4.840;2023-08-30T19:21:55;5.72;;;2.35;;
77038;SDS011;65970;50.476;4.840;2023-08-30T19:26:55;4.97;;;2.13;;
77038;SDS011;65970;50.476;4.840;2023-08-30T19:31:56;1.65;;;1.27;;
77038;SDS011;65970;50.476;4.840;2023-08-30T19:36:57;1.45;;;0.98;;
77038;SDS011;65970;50.476;4.840;2023-08-30T19:41:58;3.85;;;1.17;;
77038;SDS011;65970;50.476;4.840;2023-08-30T19:46:58;3.55;;;1.42;;
77038;SDS011;65970;50.476;4.840;2023-08-30T19:51:59;2.83;;;1.25;;
77038;SDS011;65970;50.476;4.840;2023-08-30T19:56:59;2.22;;;1.05;;
77038;SDS011;65970;50.476;4.840;2023-08-30T20:02:00;2.00;;;1.08;;
77038;SDS011;65970;50.476;4.840;2023-08-30T20:07:03;1.60;;;1.15;;
77038;SDS011;65970;50.476;4.840;2023-08-30T20:17:04;1.70;;;1.25;;
77038;SDS011;65970;50.476;4.840;2023-08-30T20:22:05;3.67;;;2.13;;
77038;SDS011;65970;50.476;4.840;2023-08-30T20:27:05;0.90;;;0.90;;
77038;SDS011;65970;50.476;4.840;2023-08-30T20:32:06;4.93;;;1.27;;
77038;SDS011;65970;50.476;4.840;2023-08-30T20:37:07;2.45;;;1.05;;
77038;SDS011;65970;50.476;4.840;2023-08-30T20:42:07;4.05;;;1.80;;
77038;SDS011;65970;50.476;4.840;2023-08-30T20:47:08;6.07;;;1.48;;
77038;SDS011;65970;50.476;4.840;2023-08-30T20:52:09;3.88;;;1.42;;
77038;SDS011;65970;50.476;4.840;2023-08-30T20:57:09;2.55;;;1.48;;
77038;SDS011;65970;50.476;4.840;2023-08-30T21:02:10;3.80;;;1.23;;
77038;SDS011;65970;50.476;4.840;2023-08-30T21:07:11;2.28;;;1.60;;
77038;SDS011;65970;50.476;4.840;2023-08-30T21:12:11;2.90;;;1.35;;
77038;SDS011;65970;50.476;4.840;2023-08-30T21:17:12;2.08;;;1.27;;
77038;SDS011;65970;50.476;4.840;2023-08-30T21:22:13;2.22;;;1.55;;
77038;SDS011;65970;50.476;4.840;2023-08-30T21:27:13;2.38;;;1.60;;
77038;SDS011;65970;50.476;4.840;2023-08-30T21:32:14;2.60;;;1.23;;
77038;SDS011;65970;50.476;4.840;2023-08-30T21:37:14;2.97;;;1.38;;
77038;SDS011;65970;50.476;4.840;2023-08-30T21:42:15;3.90;;;1.42;;
77038;SDS011;65970;50.476;4.840;2023-08-30T21:47:15;2.40;;;1.20;;
77038;SDS011;65970;50.476;4.840;2023-08-30T21:52:16;1.58;;;1.10;;
77038;SDS011;65970;50.476;4.840;2023-08-30T21:57:16;1.45;;;1.00;;
77038;SDS011;65970;50.476;4.840;2023-08-30T22:02:17;1.05;;;0.50;;
77038;SDS011;65970;50.476;4.840;2023-08-30T22:07:17;0.98;;;0.57;;
77038;SDS011;65970;50.476;4.840;2023-08-30T22:12:18;0.95;;;0.50;;
77038;SDS011;65970;50.476;4.840;2023-08-30T22:17:19;1.13;;;0.55;;
77038;SDS011;65970;50.476;4.840;2023-08-30T22:22:20;2.28;;;0.60;;
77038;SDS011;65970;50.476;4.840;2023-08-30T22:27:20;1.48;;;0.63;;
77038;SDS011;65970;50.476;4.840;2023-08-30T22:32:21;0.63;;;0.57;;
77038;SDS011;65970;50.476;4.840;2023-08-30T22:37:21;3.60;;;0.88;;
77038;SDS011;65970;50.476;4.840;2023-08-30T22:42:22;1.02;;;0.68;;
77038;SDS011;65970;50.476;4.840;2023-08-30T22:47:23;0.73;;;0.60;;
77038;SDS011;65970;50.476;4.840;2023-08-30T22:52:23;2.15;;;0.77;;
77038;SDS011;65970;50.476;4.840;2023-08-30T22:57:24;1.05;;;0.80;;
77038;SDS011;65970;50.476;4.840;2023-08-30T23:02:24;1.10;;;0.80;;
77038;SDS011;65970;50.476;4.840;2023-08-30T23:07:25;0.70;;;0.70;;
77038;SDS011;65970;50.476;4.840;2023-08-30T23:12:25;2.75;;;0.90;;
77038;SDS011;65970;50.476;4.840;2023-08-30T23:17:26;1.85;;;0.68;;
77038;SDS011;65970;50.476;4.840;2023-08-30T23:22:26;2.22;;;1.17;;
77038;SDS011;65970;50.476;4.840;2023-08-30T23:27:27;0.98;;;0.60;;
77038;SDS011;65970;50.476;4.840;2023-08-30T23:32:28;1.20;;;0.88;;
77038;SDS011;65970;50.476;4.840;2023-08-30T23:37:28;1.73;;;0.63;;
77038;SDS011;65970;50.476;4.840;2023-08-30T23:42:29;0.80;;;0.60;;
77038;SDS011;65970;50.476;4.840;2023-08-30T23:47:30;0.50;;;0.50;;
77038;SDS011;65970;50.476;4.840;2023-08-30T23:52:30;1.55;;;0.52;;
77038;SDS011;65970;50.476;4.840;2023-08-30T23:57:31;0.82;;;0.60;;
